Hamilton, Bermuda
Current Conditions -  °F | °C
As of 5:55 PM on Wednesday 22 Oct 2014 (Local Time) from TXKF Reporting Station
Rain Showers Rain Showers  
Wind Chill: 77°   Ceiling: 3300
Heat Index: 78°   Visibility: 6mi
Dew Point: 72°   Wind: 14mph
Humidity: 83%   Direction: 180°S
Pressure: 29.94"   Gusts: NA
Location:  32.3°N, 64.8°W
Report Text: TXKF 222055Z 18012KT 9999 VCSH SCT017 BKN033 OVC06525/22 Q1014 RMK WND EST
Loading
Personal Weather Stations






























Interactive Weather Map
Tropical Storm Tracking
New forecast layout! Learn more

10-Day Weather Forecast

Advertisements
Track Severe Weather on mobile